Pagina principale
METAR-TAF:

METAR-TAF

Aeroporti :

Meiringen, Svizzera

latitudine: 46-44-25N, longitudine: 8-06-36E, altezza: 577 m

Osservazione

Il bollettino è stato emesso 29 minuti fa, alle 11:50 UTC
Vento 4 kt da est
Temperature 1°C
Umidità 93%
Pressione 1020 hPa
Visibilità: 9000 m
Poco nuvoloso ad un'altezza di 800 ft
Nuvoloso ad un'altezza di 1100 ft
Nuvoloso ad un'altezza di 4000 ft

METAR: LSMM 191150Z AUTO 09004KT 9000NDV FEW008 BKN011 BKN040 01/00 Q1020 RMK

Ora: 13:19 (12:19 UTC)


TAF: mancante

Osservazioni e previsioni meteorologiche di più di 4000 aeroporti (messaggi METAR e TAF).

Le stazioni disponibili sono rappresentate dai dischi gialli e rossi sulla carta.

Puntare il mouse per vedere il nome della stazione.

Clicca sopra per visualizzare le osservazioni e previsioni meteorologiche.

Per cambiare la mappa : fare clic sui pulsanti verdi con una croce nera per ingrandire, il pulsante verde con un trattino per diminuire, o sulla freccia verde per le mappe adiacenti.


METAR-TAF: